Terminal Aerodrome Forecast
Issued by NWS Rapid City, SD

Home | Current Version | Previous Version | Text Only | Print | Product List | Glossary Off
Versions: 1 2 3 4 5 6 7 8 9 10 11 12 13 14 15 16 17 18 19 20 21

000
FTUS43 KUNR 230520
TAFRAP
TAF
KRAP 230520Z 2306/2406 11011KT P6SM SKC
     FM231500 17011KT P6SM SCT250
     FM232100 14010KT P6SM SCT100 BKN250
     FM240000 11009KT P6SM BKN070 OVC150=

USA.gov is the U.S. government's official web portal to all federal, state and local government web resources and services.